Aviation Digital Data Service (ADDS)

Output produced by METARs form (1635 UTC 16 June 2019)
found at http://www.aviationweather.gov/metar/data/
 
Forecast for: NFNA (NAUSORI FIJI , FJ)
Text: TAF NFNA 161112Z 1612/1712 15006KT 9999 SCT020 BKN045
Forecast period: 1200 UTC 16 June 2019 to 1200 UTC 17 June 2019
Forecast type: FROM: standard forecast or significant change
Winds: from the SSE (150 degrees) at 7 MPH (6 knots; 3.1 m/s)
Visibility: 6 or more miles 10+ km)
Ceiling: 4500 feet AGL
Clouds: scattered clouds at 2000 feet AGL
broken clouds at 4500 feet AGL
Weather: no significant weather forecast for this period